sensor_id;sensor_type;location;lat;lon;timestamp;pressure;altitude;pressure_sealevel;temperature;humidity
50105;BME280;47690;39.202;-77.198;2023-06-26T00:02:47;99311.22;;;57.35;10.10
50105;BME280;47690;39.202;-77.198;2023-06-26T00:05:49;99299.72;;;57.33;9.79
50105;BME280;47690;39.202;-77.198;2023-06-26T00:08:55;99293.59;;;57.63;9.90
50105;BME280;47690;39.202;-77.198;2023-06-26T00:11:56;99294.00;;;57.42;10.24
50105;BME280;47690;39.202;-77.198;2023-06-26T00:14:58;99291.91;;;56.99;9.70
50105;BME280;47690;39.202;-77.198;2023-06-26T00:18:01;99285.31;;;56.88;10.40
50105;BME280;47690;39.202;-77.198;2023-06-26T00:21:03;99281.97;;;56.79;10.41
50105;BME280;47690;39.202;-77.198;2023-06-26T00:24:29;99268.47;;;57.33;9.63
50105;BME280;47690;39.202;-77.198;2023-06-26T00:27:32;99274.56;;;57.38;9.43
50105;BME280;47690;39.202;-77.198;2023-06-26T00:30:35;99268.34;;;57.45;9.75
50105;BME280;47690;39.202;-77.198;2023-06-26T00:33:37;99281.28;;;57.01;10.12
50105;BME280;47690;39.202;-77.198;2023-06-26T00:36:40;99289.75;;;56.25;10.50
50105;BME280;47690;39.202;-77.198;2023-06-26T00:40:12;99288.31;;;56.63;10.04
50105;BME280;47690;39.202;-77.198;2023-06-26T00:43:14;99299.19;;;56.40;10.02
50105;BME280;47690;39.202;-77.198;2023-06-26T00:46:17;99297.53;;;56.51;10.25
50105;BME280;47690;39.202;-77.198;2023-06-26T00:49:19;99307.59;;;56.43;10.13
50105;BME280;47690;39.202;-77.198;2023-06-26T00:52:23;99316.06;;;56.34;10.26
50105;BME280;47690;39.202;-77.198;2023-06-26T00:55:24;99326.44;;;56.09;10.59
50105;BME280;47690;39.202;-77.198;2023-06-26T00:58:28;99326.16;;;55.98;10.40
50105;BME280;47690;39.202;-77.198;2023-06-26T01:01:32;99329.97;;;55.77;10.39
50105;BME280;47690;39.202;-77.198;2023-06-26T01:04:35;99330.94;;;56.62;10.45
50105;BME280;47690;39.202;-77.198;2023-06-26T01:08:00;99329.78;;;58.91;9.20
50105;BME280;47690;39.202;-77.198;2023-06-26T01:10:59;99338.91;;;57.15;10.24
50105;BME280;47690;39.202;-77.198;2023-06-26T01:13:54;99346.28;;;55.99;10.85
50105;BME280;47690;39.202;-77.198;2023-06-26T01:17:00;99346.19;;;56.23;10.59
50105;BME280;47690;39.202;-77.198;2023-06-26T01:20:24;99344.03;;;56.97;10.31
50105;BME280;47690;39.202;-77.198;2023-06-26T01:24:02;99345.38;;;56.55;10.27
50105;BME280;47690;39.202;-77.198;2023-06-26T01:27:03;99344.22;;;56.24;9.90
50105;BME280;47690;39.202;-77.198;2023-06-26T01:30:08;99355.72;;;55.81;10.37
50105;BME280;47690;39.202;-77.198;2023-06-26T01:33:14;99357.13;;;55.63;10.94
50105;BME280;47690;39.202;-77.198;2023-06-26T01:36:17;99351.06;;;55.45;11.18
50105;BME280;47690;39.202;-77.198;2023-06-26T01:39:20;99338.97;;;55.21;11.47
50105;BME280;47690;39.202;-77.198;2023-06-26T01:42:24;99344.28;;;56.92;9.97
50105;BME280;47690;39.202;-77.198;2023-06-26T01:45:29;99338.34;;;55.68;10.67
50105;BME280;47690;39.202;-77.198;2023-06-26T01:48:40;99342.31;;;55.55;11.33
50105;BME280;47690;39.202;-77.198;2023-06-26T01:51:55;99335.19;;;55.54;11.36
50105;BME280;47690;39.202;-77.198;2023-06-26T01:55:38;99356.81;;;56.54;10.70
50105;BME280;47690;39.202;-77.198;2023-06-26T01:58:43;99345.78;;;55.39;10.75
50105;BME280;47690;39.202;-77.198;2023-06-26T02:01:49;99347.19;;;55.33;10.74
50105;BME280;47690;39.202;-77.198;2023-06-26T02:04:51;99358.38;;;54.99;10.69
50105;BME280;47690;39.202;-77.198;2023-06-26T02:07:54;99351.59;;;55.22;10.80
50105;BME280;47690;39.202;-77.198;2023-06-26T02:11:05;99350.91;;;54.75;11.73
50105;BME280;47690;39.202;-77.198;2023-06-26T02:14:08;99354.50;;;55.54;11.36
50105;BME280;47690;39.202;-77.198;2023-06-26T02:17:12;99359.56;;;55.64;10.45
50105;BME280;47690;39.202;-77.198;2023-06-26T02:20:13;99363.94;;;55.53;10.84
50105;BME280;47690;39.202;-77.198;2023-06-26T02:23:46;99364.06;;;55.57;10.69
50105;BME280;47690;39.202;-77.198;2023-06-26T02:26:49;99365.59;;;55.82;10.86
50105;BME280;47690;39.202;-77.198;2023-06-26T02:29:52;99366.53;;;55.08;10.97
50105;BME280;47690;39.202;-77.198;2023-06-26T02:32:53;99352.53;;;55.13;11.45
50105;BME280;47690;39.202;-77.198;2023-06-26T02:35:56;99351.69;;;54.75;11.49
50105;BME280;47690;39.202;-77.198;2023-06-26T02:38:58;99349.63;;;55.10;11.21
50105;BME280;47690;39.202;-77.198;2023-06-26T02:42:01;99358.09;;;55.42;10.76
50105;BME280;47690;39.202;-77.198;2023-06-26T02:45:25;99359.06;;;55.09;11.33
50105;BME280;47690;39.202;-77.198;2023-06-26T02:48:21;99348.25;;;54.66;11.37
50105;BME280;47690;39.202;-77.198;2023-06-26T02:51:17;99349.41;;;55.03;11.50
50105;BME280;47690;39.202;-77.198;2023-06-26T02:54:29;99338.00;;;55.82;10.40
50105;BME280;47690;39.202;-77.198;2023-06-26T02:57:30;99346.34;;;55.58;11.21
50105;BME280;47690;39.202;-77.198;2023-06-26T03:00:33;99339.31;;;55.60;11.46
50105;BME280;47690;39.202;-77.198;2023-06-26T03:03:37;99336.00;;;55.42;10.56
50105;BME280;47690;39.202;-77.198;2023-06-26T03:06:41;99337.78;;;55.34;11.30
50105;BME280;47690;39.202;-77.198;2023-06-26T03:09:37;99350.56;;;54.52;11.55
50105;BME280;47690;39.202;-77.198;2023-06-26T03:12:32;99348.59;;;54.77;11.77
50105;BME280;47690;39.202;-77.198;2023-06-26T03:15:34;99351.53;;;54.34;11.56
50105;BME280;47690;39.202;-77.198;2023-06-26T03:18:37;99362.53;;;54.81;11.81
50105;BME280;47690;39.202;-77.198;2023-06-26T03:21:40;99357.59;;;54.86;11.27
50105;BME280;47690;39.202;-77.198;2023-06-26T03:24:45;99350.69;;;54.68;11.10
50105;BME280;47690;39.202;-77.198;2023-06-26T03:27:48;99353.38;;;54.43;11.27
50105;BME280;47690;39.202;-77.198;2023-06-26T03:30:51;99361.63;;;54.30;11.94
50105;BME280;47690;39.202;-77.198;2023-06-26T03:33:52;99354.84;;;54.28;12.13
50105;BME280;47690;39.202;-77.198;2023-06-26T03:36:53;99348.22;;;54.41;12.24
50105;BME280;47690;39.202;-77.198;2023-06-26T03:39:56;99346.13;;;54.38;11.88
50105;BME280;47690;39.202;-77.198;2023-06-26T03:43:01;99333.28;;;53.96;12.10
50105;BME280;47690;39.202;-77.198;2023-06-26T03:46:25;99332.50;;;54.08;12.48
50105;BME280;47690;39.202;-77.198;2023-06-26T03:49:26;99331.31;;;53.97;12.07
50105;BME280;47690;39.202;-77.198;2023-06-26T03:52:29;99332.34;;;53.92;12.20
50105;BME280;47690;39.202;-77.198;2023-06-26T03:55:33;99331.69;;;54.41;11.98
50105;BME280;47690;39.202;-77.198;2023-06-26T03:58:37;99332.16;;;54.56;11.79
50105;BME280;47690;39.202;-77.198;2023-06-26T04:02:00;99333.09;;;54.72;11.19
50105;BME280;47690;39.202;-77.198;2023-06-26T04:04:56;99324.28;;;54.79;11.27
50105;BME280;47690;39.202;-77.198;2023-06-26T04:07:55;99308.19;;;54.69;12.09
50105;BME280;47690;39.202;-77.198;2023-06-26T04:10:56;99302.41;;;54.74;11.57
50105;BME280;47690;39.202;-77.198;2023-06-26T04:14:00;99309.47;;;54.13;12.15
50105;BME280;47690;39.202;-77.198;2023-06-26T04:17:03;99301.50;;;54.57;11.76
50105;BME280;47690;39.202;-77.198;2023-06-26T04:20:08;99289.44;;;54.74;11.78
50105;BME280;47690;39.202;-77.198;2023-06-26T04:23:39;99286.31;;;55.01;11.65
50105;BME280;47690;39.202;-77.198;2023-06-26T04:26:41;99279.84;;;54.10;11.96
50105;BME280;47690;39.202;-77.198;2023-06-26T04:29:44;99279.00;;;54.68;11.08
50105;BME280;47690;39.202;-77.198;2023-06-26T04:32:46;99274.19;;;53.93;11.64
50105;BME280;47690;39.202;-77.198;2023-06-26T04:35:49;99267.34;;;54.12;12.12
50105;BME280;47690;39.202;-77.198;2023-06-26T04:38:52;99263.06;;;54.49;12.06
50105;BME280;47690;39.202;-77.198;2023-06-26T04:41:54;99250.09;;;54.03;11.78
50105;BME280;47690;39.202;-77.198;2023-06-26T04:44:57;99245.91;;;54.43;11.06
50105;BME280;47690;39.202;-77.198;2023-06-26T04:47:59;99253.38;;;54.42;11.47
50105;BME280;47690;39.202;-77.198;2023-06-26T04:51:00;99241.44;;;54.13;12.22
50105;BME280;47690;39.202;-77.198;2023-06-26T04:54:03;99243.31;;;54.00;11.98
50105;BME280;47690;39.202;-77.198;2023-06-26T04:57:05;99241.50;;;54.04;12.13
50105;BME280;47690;39.202;-77.198;2023-06-26T05:00:07;99231.66;;;54.03;11.58
50105;BME280;47690;39.202;-77.198;2023-06-26T05:03:11;99222.97;;;54.64;11.81
50105;BME280;47690;39.202;-77.198;2023-06-26T05:06:14;99226.28;;;54.69;11.07
50105;BME280;47690;39.202;-77.198;2023-06-26T05:09:17;99226.28;;;54.44;12.06
50105;BME280;47690;39.202;-77.198;2023-06-26T05:12:21;99229.25;;;54.39;11.31
50105;BME280;47690;39.202;-77.198;2023-06-26T05:15:26;99218.94;;;54.24;12.14
50105;BME280;47690;39.202;-77.198;2023-06-26T05:18:28;99213.09;;;54.25;12.14
50105;BME280;47690;39.202;-77.198;2023-06-26T05:21:31;99202.63;;;54.31;11.88
50105;BME280;47690;39.202;-77.198;2023-06-26T05:24:33;99201.25;;;54.12;11.92
50105;BME280;47690;39.202;-77.198;2023-06-26T05:28:11;99207.38;;;54.55;11.84
50105;BME280;47690;39.202;-77.198;2023-06-26T05:31:58;99208.94;;;54.81;10.91
50105;BME280;47690;39.202;-77.198;2023-06-26T05:35:02;99198.38;;;54.58;11.83
50105;BME280;47690;39.202;-77.198;2023-06-26T05:38:05;99185.53;;;54.50;11.49
50105;BME280;47690;39.202;-77.198;2023-06-26T05:41:08;99193.13;;;54.53;11.95
50105;BME280;47690;39.202;-77.198;2023-06-26T05:44:10;99183.03;;;54.45;11.48
50105;BME280;47690;39.202;-77.198;2023-06-26T05:47:12;99180.72;;;54.10;12.17
50105;BME280;47690;39.202;-77.198;2023-06-26T05:50:14;99181.38;;;54.06;11.62
50105;BME280;47690;39.202;-77.198;2023-06-26T05:53:18;99175.44;;;54.54;12.17
50105;BME280;47690;39.202;-77.198;2023-06-26T05:56:21;99172.44;;;53.97;11.85
50105;BME280;47690;39.202;-77.198;2023-06-26T05:59:25;99170.16;;;55.03;11.92
50105;BME280;47690;39.202;-77.198;2023-06-26T06:02:29;99170.31;;;55.22;10.90
50105;BME280;47690;39.202;-77.198;2023-06-26T06:05:30;99182.31;;;55.14;11.13
50105;BME280;47690;39.202;-77.198;2023-06-26T06:08:32;99175.53;;;55.11;11.26
50105;BME280;47690;39.202;-77.198;2023-06-26T06:11:36;99158.63;;;55.41;10.88
50105;BME280;47690;39.202;-77.198;2023-06-26T06:15:12;99169.88;;;55.20;11.57
50105;BME280;47690;39.202;-77.198;2023-06-26T06:18:17;99165.97;;;55.21;11.49
50105;BME280;47690;39.202;-77.198;2023-06-26T06:21:18;99168.00;;;54.96;11.69
50105;BME280;47690;39.202;-77.198;2023-06-26T06:24:20;99170.94;;;54.62;11.35
50105;BME280;47690;39.202;-77.198;2023-06-26T06:27:22;99164.50;;;54.45;12.17
50105;BME280;47690;39.202;-77.198;2023-06-26T06:30:25;99164.47;;;54.70;11.45
50105;BME280;47690;39.202;-77.198;2023-06-26T06:37:05;99161.66;;;54.29;12.46
50105;BME280;47690;39.202;-77.198;2023-06-26T06:40:01;99160.19;;;54.19;12.15
50105;BME280;47690;39.202;-77.198;2023-06-26T06:43:34;99161.13;;;54.49;12.06
50105;BME280;47690;39.202;-77.198;2023-06-26T06:46:35;99160.75;;;54.50;11.62
50105;BME280;47690;39.202;-77.198;2023-06-26T06:50:53;99169.72;;;55.00;11.42
50105;BME280;47690;39.202;-77.198;2023-06-26T06:53:56;99168.38;;;56.32;11.19
50105;BME280;47690;39.202;-77.198;2023-06-26T06:56:59;99164.25;;;54.88;11.98
50105;BME280;47690;39.202;-77.198;2023-06-26T07:00:00;99156.47;;;54.40;12.37
50105;BME280;47690;39.202;-77.198;2023-06-26T07:03:04;99146.22;;;54.66;11.47
50105;BME280;47690;39.202;-77.198;2023-06-26T07:06:09;99136.63;;;54.34;11.99
50105;BME280;47690;39.202;-77.198;2023-06-26T07:09:14;99144.59;;;55.63;11.43
50105;BME280;47690;39.202;-77.198;2023-06-26T07:12:15;99133.91;;;54.75;11.49
50105;BME280;47690;39.202;-77.198;2023-06-26T07:15:17;99144.44;;;54.57;12.29
50105;BME280;47690;39.202;-77.198;2023-06-26T07:18:20;99144.44;;;54.57;11.67
50105;BME280;47690;39.202;-77.198;2023-06-26T07:21:21;99150.84;;;54.37;11.76
50105;BME280;47690;39.202;-77.198;2023-06-26T07:24:23;99147.31;;;54.24;12.19
50105;BME280;47690;39.202;-77.198;2023-06-26T07:27:26;99150.03;;;54.11;12.48
50105;BME280;47690;39.202;-77.198;2023-06-26T07:30:29;99151.78;;;54.28;12.20
50105;BME280;47690;39.202;-77.198;2023-06-26T07:33:58;99143.25;;;54.58;11.62
50105;BME280;47690;39.202;-77.198;2023-06-26T07:37:00;99147.44;;;54.15;12.61
50105;BME280;47690;39.202;-77.198;2023-06-26T07:40:03;99145.38;;;54.49;12.44
50105;BME280;47690;39.202;-77.198;2023-06-26T07:43:05;99144.56;;;53.86;12.52
50105;BME280;47690;39.202;-77.198;2023-06-26T07:46:06;99146.06;;;54.09;12.24
50105;BME280;47690;39.202;-77.198;2023-06-26T07:49:28;99152.72;;;54.32;12.04
50105;BME280;47690;39.202;-77.198;2023-06-26T07:52:25;99144.09;;;53.97;12.63
50105;BME280;47690;39.202;-77.198;2023-06-26T07:55:21;99137.78;;;53.84;12.06
50105;BME280;47690;39.202;-77.198;2023-06-26T07:58:50;99137.13;;;54.24;12.28
50105;BME280;47690;39.202;-77.198;2023-06-26T08:01:53;99138.94;;;53.83;13.07
50105;BME280;47690;39.202;-77.198;2023-06-26T08:04:56;99139.47;;;54.63;11.16
50105;BME280;47690;39.202;-77.198;2023-06-26T08:07:58;99139.06;;;54.49;12.01
50105;BME280;47690;39.202;-77.198;2023-06-26T08:11:00;99146.19;;;55.64;11.66
50105;BME280;47690;39.202;-77.198;2023-06-26T08:14:02;99155.97;;;54.88;11.37
50105;BME280;47690;39.202;-77.198;2023-06-26T08:17:05;99155.97;;;54.75;12.16
50105;BME280;47690;39.202;-77.198;2023-06-26T08:20:11;99155.78;;;54.56;12.24
50105;BME280;47690;39.202;-77.198;2023-06-26T08:23:15;99156.44;;;53.78;12.42
50105;BME280;47690;39.202;-77.198;2023-06-26T08:26:44;99153.72;;;54.03;12.44
50105;BME280;47690;39.202;-77.198;2023-06-26T08:29:46;99149.66;;;53.63;12.24
50105;BME280;47690;39.202;-77.198;2023-06-26T08:32:48;99139.22;;;53.56;12.54
50105;BME280;47690;39.202;-77.198;2023-06-26T08:35:50;99125.97;;;53.83;12.44
50105;BME280;47690;39.202;-77.198;2023-06-26T08:38:52;99113.69;;;53.93;12.69
50105;BME280;47690;39.202;-77.198;2023-06-26T08:42:26;99121.00;;;54.51;12.07
50105;BME280;47690;39.202;-77.198;2023-06-26T08:45:28;99106.91;;;53.78;12.57
50105;BME280;47690;39.202;-77.198;2023-06-26T08:48:32;99100.81;;;53.60;12.50
50105;BME280;47690;39.202;-77.198;2023-06-26T08:51:35;99090.28;;;53.99;12.22
50105;BME280;47690;39.202;-77.198;2023-06-26T08:54:45;99082.28;;;53.82;12.71
50105;BME280;47690;39.202;-77.198;2023-06-26T08:57:53;99083.38;;;53.56;12.90
50105;BME280;47690;39.202;-77.198;2023-06-26T09:00:58;99068.81;;;53.55;13.15
50105;BME280;47690;39.202;-77.198;2023-06-26T09:04:02;99056.22;;;53.54;13.17
50105;BME280;47690;39.202;-77.198;2023-06-26T09:07:04;99052.25;;;53.43;12.47
50105;BME280;47690;39.202;-77.198;2023-06-26T09:10:08;99052.09;;;53.60;12.95
50105;BME280;47690;39.202;-77.198;2023-06-26T09:13:13;99067.13;;;53.88;12.46
50105;BME280;47690;39.202;-77.198;2023-06-26T09:16:17;99061.97;;;53.99;12.12
50105;BME280;47690;39.202;-77.198;2023-06-26T09:19:41;99073.59;;;54.86;11.42
50105;BME280;47690;39.202;-77.198;2023-06-26T09:22:42;99082.81;;;54.50;11.20
50105;BME280;47690;39.202;-77.198;2023-06-26T09:25:39;99084.63;;;54.33;12.38
50105;BME280;47690;39.202;-77.198;2023-06-26T09:28:43;99084.09;;;54.15;11.90
50105;BME280;47690;39.202;-77.198;2023-06-26T09:31:45;99089.91;;;53.51;12.83
50105;BME280;47690;39.202;-77.198;2023-06-26T09:34:47;99093.97;;;54.03;12.65
50105;BME280;47690;39.202;-77.198;2023-06-26T09:37:54;99090.84;;;53.55;12.84
50105;BME280;47690;39.202;-77.198;2023-06-26T09:41:01;99091.81;;;53.38;13.31
50105;BME280;47690;39.202;-77.198;2023-06-26T09:44:03;99095.22;;;53.93;12.18
50105;BME280;47690;39.202;-77.198;2023-06-26T09:47:06;99092.81;;;54.04;11.83
50105;BME280;47690;39.202;-77.198;2023-06-26T09:50:22;99092.69;;;54.26;12.08
50105;BME280;47690;39.202;-77.198;2023-06-26T09:53:25;99095.94;;;54.15;11.90
50105;BME280;47690;39.202;-77.198;2023-06-26T09:56:31;99092.69;;;53.76;12.31
50105;BME280;47690;39.202;-77.198;2023-06-26T09:59:33;99078.25;;;53.33;12.68
50105;BME280;47690;39.202;-77.198;2023-06-26T10:02:36;99082.63;;;53.34;12.99
50105;BME280;47690;39.202;-77.198;2023-06-26T10:05:41;99082.50;;;53.30;12.70
50105;BME280;47690;39.202;-77.198;2023-06-26T10:08:45;99077.97;;;53.47;12.92
50105;BME280;47690;39.202;-77.198;2023-06-26T10:12:02;99068.38;;;53.78;12.05
50105;BME280;47690;39.202;-77.198;2023-06-26T10:15:06;99072.16;;;53.73;12.61
50105;BME280;47690;39.202;-77.198;2023-06-26T10:18:13;99059.06;;;54.20;11.60
50105;BME280;47690;39.202;-77.198;2023-06-26T10:21:18;99070.31;;;54.15;12.39
50105;BME280;47690;39.202;-77.198;2023-06-26T10:24:23;99077.28;;;54.50;12.24
50105;BME280;47690;39.202;-77.198;2023-06-26T10:27:58;99093.53;;;54.80;11.95
50105;BME280;47690;39.202;-77.198;2023-06-26T10:31:01;99091.50;;;54.52;12.19
50105;BME280;47690;39.202;-77.198;2023-06-26T10:34:07;99081.31;;;54.40;11.93
50105;BME280;47690;39.202;-77.198;2023-06-26T10:37:12;99072.84;;;54.73;11.90
50105;BME280;47690;39.202;-77.198;2023-06-26T10:40:21;99084.09;;;54.68;12.20
50105;BME280;47690;39.202;-77.198;2023-06-26T10:43:30;99079.53;;;54.60;11.79
50105;BME280;47690;39.202;-77.198;2023-06-26T10:46:39;99085.47;;;54.74;12.27
50105;BME280;47690;39.202;-77.198;2023-06-26T10:49:52;99084.81;;;54.94;12.03
50105;BME280;47690;39.202;-77.198;2023-06-26T10:59:48;99101.09;;;54.70;12.18
50105;BME280;47690;39.202;-77.198;2023-06-26T11:02:51;99102.31;;;54.57;12.21
50105;BME280;47690;39.202;-77.198;2023-06-26T11:06:12;99108.66;;;54.73;11.04
50105;BME280;47690;39.202;-77.198;2023-06-26T11:09:18;99120.66;;;54.65;11.35
50105;BME280;47690;39.202;-77.198;2023-06-26T11:12:41;99127.44;;;54.96;11.33
50105;BME280;47690;39.202;-77.198;2023-06-26T11:15:45;99118.72;;;54.53;12.18
50105;BME280;47690;39.202;-77.198;2023-06-26T11:19:07;99126.94;;;54.66;11.96
50105;BME280;47690;39.202;-77.198;2023-06-26T11:22:05;99131.00;;;54.43;12.44
50105;BME280;47690;39.202;-77.198;2023-06-26T11:25:29;99136.09;;;55.23;11.87
50105;BME280;47690;39.202;-77.198;2023-06-26T11:32:18;99167.78;;;54.88;12.18
50105;BME280;47690;39.202;-77.198;2023-06-26T11:35:13;99160.94;;;56.52;10.31
50105;BME280;47690;39.202;-77.198;2023-06-26T11:38:26;99169.00;;;54.63;12.35
50105;BME280;47690;39.202;-77.198;2023-06-26T11:41:30;99164.28;;;54.63;11.69
50105;BME280;47690;39.202;-77.198;2023-06-26T11:44:40;99167.75;;;55.29;11.52
50105;BME280;47690;39.202;-77.198;2023-06-26T11:47:41;99161.16;;;54.77;12.24
50105;BME280;47690;39.202;-77.198;2023-06-26T11:50:45;99155.25;;;54.91;12.41
50105;BME280;47690;39.202;-77.198;2023-06-26T11:53:47;99165.22;;;54.55;12.24
50105;BME280;47690;39.202;-77.198;2023-06-26T11:57:14;99161.44;;;54.47;13.09
50105;BME280;47690;39.202;-77.198;2023-06-26T12:00:16;99151.00;;;54.28;12.03
50105;BME280;47690;39.202;-77.198;2023-06-26T12:03:20;99160.41;;;54.27;12.82
50105;BME280;47690;39.202;-77.198;2023-06-26T12:06:22;99156.38;;;55.31;11.91
50105;BME280;47690;39.202;-77.198;2023-06-26T12:09:50;99148.78;;;55.89;11.54
50105;BME280;47690;39.202;-77.198;2023-06-26T12:12:53;99153.56;;;54.86;12.67
50105;BME280;47690;39.202;-77.198;2023-06-26T12:15:57;99154.16;;;54.80;13.07
50105;BME280;47690;39.202;-77.198;2023-06-26T12:19:02;99143.69;;;54.73;13.09
50105;BME280;47690;39.202;-77.198;2023-06-26T12:22:09;99151.97;;;55.14;12.36
50105;BME280;47690;39.202;-77.198;2023-06-26T12:25:12;99145.19;;;54.70;13.28
50105;BME280;47690;39.202;-77.198;2023-06-26T12:28:18;99143.78;;;55.18;12.97
50105;BME280;47690;39.202;-77.198;2023-06-26T12:31:21;99147.81;;;55.20;12.42
50105;BME280;47690;39.202;-77.198;2023-06-26T12:34:38;99139.88;;;55.47;12.44
50105;BME280;47690;39.202;-77.198;2023-06-26T12:37:42;99148.88;;;55.15;12.96
50105;BME280;47690;39.202;-77.198;2023-06-26T12:40:47;99149.31;;;55.62;12.10
50105;BME280;47690;39.202;-77.198;2023-06-26T12:43:48;99145.50;;;55.67;12.64
50105;BME280;47690;39.202;-77.198;2023-06-26T12:46:55;99137.59;;;55.37;12.73
50105;BME280;47690;39.202;-77.198;2023-06-26T12:50:05;99128.66;;;55.56;12.77
50105;BME280;47690;39.202;-77.198;2023-06-26T12:53:34;99135.84;;;55.77;12.36
50105;BME280;47690;39.202;-77.198;2023-06-26T12:56:48;99129.19;;;55.94;11.88
50105;BME280;47690;39.202;-77.198;2023-06-26T12:59:50;99135.44;;;55.91;12.79
50105;BME280;47690;39.202;-77.198;2023-06-26T13:02:54;99140.31;;;55.49;12.56
50105;BME280;47690;39.202;-77.198;2023-06-26T13:05:58;99131.91;;;56.42;11.93
50105;BME280;47690;39.202;-77.198;2023-06-26T13:09:00;99135.53;;;56.46;11.70
50105;BME280;47690;39.202;-77.198;2023-06-26T13:12:03;99141.66;;;56.04;12.60
50105;BME280;47690;39.202;-77.198;2023-06-26T13:15:07;99158.06;;;56.13;12.70
50105;BME280;47690;39.202;-77.198;2023-06-26T13:18:15;99150.31;;;56.54;12.21
50105;BME280;47690;39.202;-77.198;2023-06-26T13:21:19;99152.72;;;56.56;12.50
50105;BME280;47690;39.202;-77.198;2023-06-26T13:24:22;99157.56;;;56.62;11.80
50105;BME280;47690;39.202;-77.198;2023-06-26T13:27:24;99156.50;;;56.31;12.14
50105;BME280;47690;39.202;-77.198;2023-06-26T13:30:25;99148.88;;;57.00;11.79
50105;BME280;47690;39.202;-77.198;2023-06-26T13:33:27;99148.38;;;56.39;11.88
50105;BME280;47690;39.202;-77.198;2023-06-26T13:36:54;99138.78;;;57.08;11.46
50105;BME280;47690;39.202;-77.198;2023-06-26T13:39:56;99127.84;;;56.95;11.72
50105;BME280;47690;39.202;-77.198;2023-06-26T13:42:58;99136.16;;;56.40;12.72
50105;BME280;47690;39.202;-77.198;2023-06-26T13:46:11;99131.19;;;56.45;12.71
50105;BME280;47690;39.202;-77.198;2023-06-26T13:49:18;99132.44;;;56.48;12.72
50105;BME280;47690;39.202;-77.198;2023-06-26T13:52:21;99125.28;;;56.47;12.22
50105;BME280;47690;39.202;-77.198;2023-06-26T13:55:28;99124.72;;;57.16;11.91
50105;BME280;47690;39.202;-77.198;2023-06-26T13:58:29;99123.53;;;57.37;11.75
50105;BME280;47690;39.202;-77.198;2023-06-26T14:01:30;99119.03;;;57.33;11.83
50105;BME280;47690;39.202;-77.198;2023-06-26T14:04:33;99120.22;;;57.31;11.77
50105;BME280;47690;39.202;-77.198;2023-06-26T14:07:34;99115.88;;;57.54;11.47
50105;BME280;47690;39.202;-77.198;2023-06-26T14:10:38;99110.72;;;57.76;11.16
50105;BME280;47690;39.202;-77.198;2023-06-26T14:13:40;99119.94;;;57.60;11.65
50105;BME280;47690;39.202;-77.198;2023-06-26T14:16:42;99124.00;;;57.66;11.96
50105;BME280;47690;39.202;-77.198;2023-06-26T14:19:46;99123.38;;;57.77;11.40
50105;BME280;47690;39.202;-77.198;2023-06-26T14:23:08;99115.28;;;57.91;11.57
50105;BME280;47690;39.202;-77.198;2023-06-26T14:26:04;99111.75;;;57.67;11.88
50105;BME280;47690;39.202;-77.198;2023-06-26T14:29:00;99116.06;;;57.65;12.30
50105;BME280;47690;39.202;-77.198;2023-06-26T14:32:03;99112.41;;;57.61;11.54
50105;BME280;47690;39.202;-77.198;2023-06-26T14:35:04;99114.66;;;57.51;11.68
50105;BME280;47690;39.202;-77.198;2023-06-26T14:38:07;99114.50;;;57.21;11.64
50105;BME280;47690;39.202;-77.198;2023-06-26T14:41:08;99108.88;;;56.94;11.87
50105;BME280;47690;39.202;-77.198;2023-06-26T14:44:11;99109.28;;;56.96;12.46
50105;BME280;47690;39.202;-77.198;2023-06-26T14:47:13;99098.66;;;56.98;12.09
50105;BME280;47690;39.202;-77.198;2023-06-26T14:50:15;99100.94;;;56.92;12.04
50105;BME280;47690;39.202;-77.198;2023-06-26T14:53:17;99092.06;;;57.26;12.20
50105;BME280;47690;39.202;-77.198;2023-06-26T14:56:19;99097.88;;;57.91;11.22
50105;BME280;47690;39.202;-77.198;2023-06-26T14:59:21;99095.09;;;58.18;10.86
50105;BME280;47690;39.202;-77.198;2023-06-26T15:02:24;99087.25;;;58.23;10.99
50105;BME280;47690;39.202;-77.198;2023-06-26T15:05:28;99090.88;;;58.28;11.47
50105;BME280;47690;39.202;-77.198;2023-06-26T15:08:31;99088.72;;;58.14;10.85
50105;BME280;47690;39.202;-77.198;2023-06-26T15:11:32;99082.59;;;58.01;11.12
50105;BME280;47690;39.202;-77.198;2023-06-26T15:14:43;99076.44;;;58.11;11.64
50105;BME280;47690;39.202;-77.198;2023-06-26T15:17:51;99087.56;;;57.88;11.77
50105;BME280;47690;39.202;-77.198;2023-06-26T15:20:53;99089.09;;;57.85;11.83
50105;BME280;47690;39.202;-77.198;2023-06-26T15:23:57;99077.19;;;57.84;11.50
50105;BME280;47690;39.202;-77.198;2023-06-26T15:26:58;99079.94;;;57.81;11.56
50105;BME280;47690;39.202;-77.198;2023-06-26T15:30:05;99087.03;;;57.78;11.00
50105;BME280;47690;39.202;-77.198;2023-06-26T15:33:08;99085.81;;;57.76;11.79
50105;BME280;47690;39.202;-77.198;2023-06-26T15:36:09;99087.50;;;57.84;11.46
50105;BME280;47690;39.202;-77.198;2023-06-26T15:39:11;99073.28;;;57.86;11.35
50105;BME280;47690;39.202;-77.198;2023-06-26T15:42:13;99069.91;;;57.73;11.38
50105;BME280;47690;39.202;-77.198;2023-06-26T15:45:16;99066.28;;;57.95;11.42
50105;BME280;47690;39.202;-77.198;2023-06-26T15:48:19;99061.81;;;57.87;11.19
50105;BME280;47690;39.202;-77.198;2023-06-26T15:51:21;99063.91;;;57.94;11.07
50105;BME280;47690;39.202;-77.198;2023-06-26T15:54:25;99061.75;;;57.83;10.82
50105;BME280;47690;39.202;-77.198;2023-06-26T15:57:30;99053.19;;;57.92;11.56
50105;BME280;47690;39.202;-77.198;2023-06-26T16:00:32;99059.47;;;58.16;10.70
50105;BME280;47690;39.202;-77.198;2023-06-26T16:03:37;99058.50;;;58.01;11.58
50105;BME280;47690;39.202;-77.198;2023-06-26T16:06:38;99057.59;;;57.97;10.82
50105;BME280;47690;39.202;-77.198;2023-06-26T16:09:40;99044.25;;;58.03;11.22
50105;BME280;47690;39.202;-77.198;2023-06-26T16:12:43;99047.91;;;58.10;11.28
50105;BME280;47690;39.202;-77.198;2023-06-26T16:15:45;99040.38;;;58.07;10.58